sensor_id;sensor_type;location;lat;lon;timestamp;P1;durP1;ratioP1;P2;durP2;ratioP2
37895;SDS011;23733;53.254;10.430;2023-05-23T00:00:54;6.67;;;5.03;;
37895;SDS011;23733;53.254;10.430;2023-05-23T00:03:23;7.73;;;5.67;;
37895;SDS011;23733;53.254;10.430;2023-05-23T00:05:49;7.83;;;5.40;;
37895;SDS011;23733;53.254;10.430;2023-05-23T00:08:16;7.43;;;5.43;;
37895;SDS011;23733;53.254;10.430;2023-05-23T00:10:43;10.63;;;6.80;;
37895;SDS011;23733;53.254;10.430;2023-05-23T00:13:10;8.23;;;5.90;;
37895;SDS011;23733;53.254;10.430;2023-05-23T00:15:39;6.90;;;5.57;;
37895;SDS011;23733;53.254;10.430;2023-05-23T00:18:06;10.70;;;5.47;;
37895;SDS011;23733;53.254;10.430;2023-05-23T00:20:36;8.23;;;4.90;;
37895;SDS011;23733;53.254;10.430;2023-05-23T00:23:06;5.77;;;4.83;;
37895;SDS011;23733;53.254;10.430;2023-05-23T00:25:35;5.50;;;4.90;;
37895;SDS011;23733;53.254;10.430;2023-05-23T00:28:02;6.90;;;4.83;;
37895;SDS011;23733;53.254;10.430;2023-05-23T00:30:29;6.23;;;4.90;;
37895;SDS011;23733;53.254;10.430;2023-05-23T00:32:56;7.93;;;4.90;;
37895;SDS011;23733;53.254;10.430;2023-05-23T00:35:23;10.33;;;4.67;;
37895;SDS011;23733;53.254;10.430;2023-05-23T00:37:49;8.47;;;5.40;;
37895;SDS011;23733;53.254;10.430;2023-05-23T00:40:19;7.37;;;5.20;;
37895;SDS011;23733;53.254;10.430;2023-05-23T00:42:46;7.73;;;4.80;;
37895;SDS011;23733;53.254;10.430;2023-05-23T00:45:12;6.03;;;4.70;;
37895;SDS011;23733;53.254;10.430;2023-05-23T00:47:39;5.83;;;5.23;;
37895;SDS011;23733;53.254;10.430;2023-05-23T00:50:08;6.37;;;5.00;;
37895;SDS011;23733;53.254;10.430;2023-05-23T00:52:36;8.40;;;5.20;;
37895;SDS011;23733;53.254;10.430;2023-05-23T00:55:03;7.37;;;5.53;;
37895;SDS011;23733;53.254;10.430;2023-05-23T00:57:30;6.00;;;5.40;;
37895;SDS011;23733;53.254;10.430;2023-05-23T00:59:59;6.77;;;5.10;;
37895;SDS011;23733;53.254;10.430;2023-05-23T01:02:26;6.33;;;5.20;;
37895;SDS011;23733;53.254;10.430;2023-05-23T01:04:52;6.03;;;4.90;;
37895;SDS011;23733;53.254;10.430;2023-05-23T01:07:20;6.10;;;5.00;;
37895;SDS011;23733;53.254;10.430;2023-05-23T01:09:46;8.10;;;5.13;;
37895;SDS011;23733;53.254;10.430;2023-05-23T01:15:15;7.13;;;5.37;;
37895;SDS011;23733;53.254;10.430;2023-05-23T01:17:54;5.73;;;5.13;;
37895;SDS011;23733;53.254;10.430;2023-05-23T01:20:29;6.37;;;5.40;;
37895;SDS011;23733;53.254;10.430;2023-05-23T01:22:59;6.00;;;5.00;;
37895;SDS011;23733;53.254;10.430;2023-05-23T01:28:31;12.37;;;5.60;;
37895;SDS011;23733;53.254;10.430;2023-05-23T01:31:02;6.73;;;5.73;;
37895;SDS011;23733;53.254;10.430;2023-05-23T01:33:30;6.10;;;5.47;;
37895;SDS011;23733;53.254;10.430;2023-05-23T01:35:57;6.53;;;5.57;;
37895;SDS011;23733;53.254;10.430;2023-05-23T01:38:26;8.33;;;5.77;;
37895;SDS011;23733;53.254;10.430;2023-05-23T01:40:52;7.13;;;6.20;;
37895;SDS011;23733;53.254;10.430;2023-05-23T01:43:18;11.40;;;6.07;;
37895;SDS011;23733;53.254;10.430;2023-05-23T01:45:45;8.83;;;6.20;;
37895;SDS011;23733;53.254;10.430;2023-05-23T01:48:12;8.23;;;6.20;;
37895;SDS011;23733;53.254;10.430;2023-05-23T01:50:41;7.50;;;6.03;;
37895;SDS011;23733;53.254;10.430;2023-05-23T01:53:11;6.97;;;5.83;;
37895;SDS011;23733;53.254;10.430;2023-05-23T01:55:45;8.77;;;6.20;;
37895;SDS011;23733;53.254;10.430;2023-05-23T01:58:12;9.83;;;6.30;;
37895;SDS011;23733;53.254;10.430;2023-05-23T02:00:38;10.63;;;7.67;;
37895;SDS011;23733;53.254;10.430;2023-05-23T02:03:04;9.20;;;7.53;;
37895;SDS011;23733;53.254;10.430;2023-05-23T02:05:30;9.07;;;7.17;;
37895;SDS011;23733;53.254;10.430;2023-05-23T02:07:56;8.17;;;7.30;;
37895;SDS011;23733;53.254;10.430;2023-05-23T02:10:22;10.80;;;7.40;;
37895;SDS011;23733;53.254;10.430;2023-05-23T02:12:48;8.50;;;7.57;;
37895;SDS011;23733;53.254;10.430;2023-05-23T02:15:15;11.67;;;8.30;;
37895;SDS011;23733;53.254;10.430;2023-05-23T02:17:41;13.27;;;8.90;;
37895;SDS011;23733;53.254;10.430;2023-05-23T02:20:07;14.03;;;8.40;;
37895;SDS011;23733;53.254;10.430;2023-05-23T02:22:34;10.87;;;8.47;;
37895;SDS011;23733;53.254;10.430;2023-05-23T02:25:01;10.80;;;8.73;;
37895;SDS011;23733;53.254;10.430;2023-05-23T02:27:27;13.50;;;8.17;;
37895;SDS011;23733;53.254;10.430;2023-05-23T02:29:53;12.03;;;8.77;;
37895;SDS011;23733;53.254;10.430;2023-05-23T02:32:19;10.07;;;8.73;;
37895;SDS011;23733;53.254;10.430;2023-05-23T02:34:45;11.77;;;8.67;;
37895;SDS011;23733;53.254;10.430;2023-05-23T02:37:14;13.37;;;9.33;;
37895;SDS011;23733;53.254;10.430;2023-05-23T02:39:41;13.50;;;10.23;;
37895;SDS011;23733;53.254;10.430;2023-05-23T02:42:08;15.70;;;12.63;;
37895;SDS011;23733;53.254;10.430;2023-05-23T02:44:34;23.23;;;14.13;;
37895;SDS011;23733;53.254;10.430;2023-05-23T02:47:00;17.83;;;13.30;;
37895;SDS011;23733;53.254;10.430;2023-05-23T02:49:26;15.60;;;13.10;;
37895;SDS011;23733;53.254;10.430;2023-05-23T02:51:52;21.97;;;16.03;;
37895;SDS011;23733;53.254;10.430;2023-05-23T02:54:18;19.30;;;15.53;;
37895;SDS011;23733;53.254;10.430;2023-05-23T02:56:44;24.37;;;16.37;;
37895;SDS011;23733;53.254;10.430;2023-05-23T02:59:10;25.97;;;15.63;;
37895;SDS011;23733;53.254;10.430;2023-05-23T03:01:37;22.97;;;17.00;;
37895;SDS011;23733;53.254;10.430;2023-05-23T03:04:03;23.20;;;17.23;;
37895;SDS011;23733;53.254;10.430;2023-05-23T03:06:29;24.70;;;17.07;;
37895;SDS011;23733;53.254;10.430;2023-05-23T03:08:58;25.63;;;18.50;;
37895;SDS011;23733;53.254;10.430;2023-05-23T03:11:25;24.27;;;18.20;;
37895;SDS011;23733;53.254;10.430;2023-05-23T03:13:51;23.50;;;17.83;;
37895;SDS011;23733;53.254;10.430;2023-05-23T03:16:17;26.37;;;17.70;;
37895;SDS011;23733;53.254;10.430;2023-05-23T03:18:43;23.20;;;17.03;;
37895;SDS011;23733;53.254;10.430;2023-05-23T03:21:09;26.20;;;17.03;;
37895;SDS011;23733;53.254;10.430;2023-05-23T03:23:35;26.17;;;18.93;;
37895;SDS011;23733;53.254;10.430;2023-05-23T03:26:01;27.83;;;17.90;;
37895;SDS011;23733;53.254;10.430;2023-05-23T03:28:31;30.87;;;18.97;;
37895;SDS011;23733;53.254;10.430;2023-05-23T03:30:57;26.57;;;18.93;;
37895;SDS011;23733;53.254;10.430;2023-05-23T03:33:23;25.77;;;16.87;;
37895;SDS011;23733;53.254;10.430;2023-05-23T03:35:49;26.47;;;18.07;;
37895;SDS011;23733;53.254;10.430;2023-05-23T03:38:15;23.57;;;17.67;;
37895;SDS011;23733;53.254;10.430;2023-05-23T03:40:41;25.83;;;17.70;;
37895;SDS011;23733;53.254;10.430;2023-05-23T03:43:07;25.03;;;17.03;;
37895;SDS011;23733;53.254;10.430;2023-05-23T03:45:33;31.03;;;18.77;;
37895;SDS011;23733;53.254;10.430;2023-05-23T03:47:59;24.63;;;16.53;;
37895;SDS011;23733;53.254;10.430;2023-05-23T03:50:26;28.63;;;17.73;;
37895;SDS011;23733;53.254;10.430;2023-05-23T03:52:52;25.80;;;17.50;;
37895;SDS011;23733;53.254;10.430;2023-05-23T03:55:23;25.43;;;16.67;;
37895;SDS011;23733;53.254;10.430;2023-05-23T03:57:50;30.27;;;19.57;;
37895;SDS011;23733;53.254;10.430;2023-05-23T04:00:16;29.57;;;19.77;;
37895;SDS011;23733;53.254;10.430;2023-05-23T04:02:43;28.80;;;18.83;;
37895;SDS011;23733;53.254;10.430;2023-05-23T04:05:11;26.33;;;19.20;;
37895;SDS011;23733;53.254;10.430;2023-05-23T04:07:37;28.00;;;18.13;;
37895;SDS011;23733;53.254;10.430;2023-05-23T04:10:04;24.50;;;17.60;;
37895;SDS011;23733;53.254;10.430;2023-05-23T04:12:30;26.03;;;16.90;;
37895;SDS011;23733;53.254;10.430;2023-05-23T04:14:56;21.73;;;15.97;;
37895;SDS011;23733;53.254;10.430;2023-05-23T04:17:23;24.43;;;17.40;;
37895;SDS011;23733;53.254;10.430;2023-05-23T04:19:49;25.77;;;17.03;;
37895;SDS011;23733;53.254;10.430;2023-05-23T04:22:16;25.50;;;17.50;;
37895;SDS011;23733;53.254;10.430;2023-05-23T04:24:42;23.70;;;16.53;;
37895;SDS011;23733;53.254;10.430;2023-05-23T04:27:08;22.50;;;15.83;;
37895;SDS011;23733;53.254;10.430;2023-05-23T04:29:34;20.60;;;14.87;;
37895;SDS011;23733;53.254;10.430;2023-05-23T04:32:03;21.50;;;15.33;;
37895;SDS011;23733;53.254;10.430;2023-05-23T04:34:30;29.10;;;16.23;;
37895;SDS011;23733;53.254;10.430;2023-05-23T04:37:00;21.20;;;15.57;;
37895;SDS011;23733;53.254;10.430;2023-05-23T04:39:27;22.23;;;16.73;;
37895;SDS011;23733;53.254;10.430;2023-05-23T04:41:57;22.90;;;15.97;;
37895;SDS011;23733;53.254;10.430;2023-05-23T04:44:24;22.87;;;15.53;;
37895;SDS011;23733;53.254;10.430;2023-05-23T04:46:51;20.87;;;15.07;;
37895;SDS011;23733;53.254;10.430;2023-05-23T04:49:17;21.93;;;15.43;;
37895;SDS011;23733;53.254;10.430;2023-05-23T04:51:45;25.70;;;15.53;;
37895;SDS011;23733;53.254;10.430;2023-05-23T04:54:11;23.37;;;15.73;;
37895;SDS011;23733;53.254;10.430;2023-05-23T04:56:37;20.40;;;15.30;;
37895;SDS011;23733;53.254;10.430;2023-05-23T04:59:03;22.20;;;16.63;;
37895;SDS011;23733;53.254;10.430;2023-05-23T05:01:29;21.83;;;14.53;;
37895;SDS011;23733;53.254;10.430;2023-05-23T05:03:55;20.77;;;14.27;;
37895;SDS011;23733;53.254;10.430;2023-05-23T05:06:22;19.50;;;13.20;;
37895;SDS011;23733;53.254;10.430;2023-05-23T05:08:48;21.40;;;13.83;;
37895;SDS011;23733;53.254;10.430;2023-05-23T05:11:14;21.03;;;13.10;;
37895;SDS011;23733;53.254;10.430;2023-05-23T05:13:40;18.40;;;13.40;;
37895;SDS011;23733;53.254;10.430;2023-05-23T05:16:06;17.70;;;12.03;;
37895;SDS011;23733;53.254;10.430;2023-05-23T05:18:32;23.53;;;12.00;;
37895;SDS011;23733;53.254;10.430;2023-05-23T05:20:58;15.37;;;11.70;;
37895;SDS011;23733;53.254;10.430;2023-05-23T05:23:24;15.17;;;11.10;;
37895;SDS011;23733;53.254;10.430;2023-05-23T05:25:53;15.03;;;11.30;;
37895;SDS011;23733;53.254;10.430;2023-05-23T05:28:20;14.47;;;10.20;;
37895;SDS011;23733;53.254;10.430;2023-05-23T05:30:46;14.50;;;10.80;;
37895;SDS011;23733;53.254;10.430;2023-05-23T05:33:18;18.63;;;11.63;;
37895;SDS011;23733;53.254;10.430;2023-05-23T05:35:48;16.40;;;11.53;;
37895;SDS011;23733;53.254;10.430;2023-05-23T05:38:16;13.97;;;10.80;;
37895;SDS011;23733;53.254;10.430;2023-05-23T05:40:42;14.87;;;11.13;;
37895;SDS011;23733;53.254;10.430;2023-05-23T05:43:08;17.47;;;11.70;;
37895;SDS011;23733;53.254;10.430;2023-05-23T05:45:34;16.73;;;12.07;;
37895;SDS011;23733;53.254;10.430;2023-05-23T05:48:01;14.03;;;10.70;;
37895;SDS011;23733;53.254;10.430;2023-05-23T05:50:27;17.63;;;11.53;;
37895;SDS011;23733;53.254;10.430;2023-05-23T05:52:53;16.67;;;11.60;;
37895;SDS011;23733;53.254;10.430;2023-05-23T05:55:19;14.03;;;10.73;;
37895;SDS011;23733;53.254;10.430;2023-05-23T05:57:45;17.40;;;10.83;;
37895;SDS011;23733;53.254;10.430;2023-05-23T06:00:12;18.00;;;11.13;;
37895;SDS011;23733;53.254;10.430;2023-05-23T06:02:43;17.47;;;12.03;;
37895;SDS011;23733;53.254;10.430;2023-05-23T06:05:15;13.83;;;10.53;;
37895;SDS011;23733;53.254;10.430;2023-05-23T06:07:42;16.77;;;11.67;;
37895;SDS011;23733;53.254;10.430;2023-05-23T06:10:08;17.73;;;11.93;;
37895;SDS011;23733;53.254;10.430;2023-05-23T06:12:37;17.80;;;12.07;;
37895;SDS011;23733;53.254;10.430;2023-05-23T06:15:04;21.83;;;12.63;;
37895;SDS011;23733;53.254;10.430;2023-05-23T06:17:30;19.13;;;13.20;;
37895;SDS011;23733;53.254;10.430;2023-05-23T06:19:56;19.67;;;13.60;;
37895;SDS011;23733;53.254;10.430;2023-05-23T06:22:22;20.37;;;14.17;;
37895;SDS011;23733;53.254;10.430;2023-05-23T06:24:48;20.60;;;13.50;;
37895;SDS011;23733;53.254;10.430;2023-05-23T06:27:14;20.57;;;13.40;;
37895;SDS011;23733;53.254;10.430;2023-05-23T06:29:40;21.00;;;13.83;;
37895;SDS011;23733;53.254;10.430;2023-05-23T06:32:06;19.33;;;12.97;;
37895;SDS011;23733;53.254;10.430;2023-05-23T06:34:32;21.13;;;12.70;;
37895;SDS011;23733;53.254;10.430;2023-05-23T06:36:58;24.23;;;13.67;;
37895;SDS011;23733;53.254;10.430;2023-05-23T06:39:25;24.40;;;14.30;;
37895;SDS011;23733;53.254;10.430;2023-05-23T06:41:51;22.27;;;13.13;;
37895;SDS011;23733;53.254;10.430;2023-05-23T06:44:17;22.73;;;12.77;;
37895;SDS011;23733;53.254;10.430;2023-05-23T06:46:46;22.43;;;12.90;;
37895;SDS011;23733;53.254;10.430;2023-05-23T06:49:12;19.97;;;13.27;;
37895;SDS011;23733;53.254;10.430;2023-05-23T06:51:39;28.27;;;14.43;;
37895;SDS011;23733;53.254;10.430;2023-05-23T06:54:05;22.53;;;14.27;;
37895;SDS011;23733;53.254;10.430;2023-05-23T06:56:31;22.83;;;14.63;;
37895;SDS011;23733;53.254;10.430;2023-05-23T06:58:57;24.70;;;14.17;;
37895;SDS011;23733;53.254;10.430;2023-05-23T07:01:23;24.60;;;13.80;;
37895;SDS011;23733;53.254;10.430;2023-05-23T07:03:49;24.20;;;13.87;;
37895;SDS011;23733;53.254;10.430;2023-05-23T07:06:15;21.83;;;13.67;;
37895;SDS011;23733;53.254;10.430;2023-05-23T07:08:42;26.60;;;14.63;;
37895;SDS011;23733;53.254;10.430;2023-05-23T07:11:08;26.77;;;15.07;;
37895;SDS011;23733;53.254;10.430;2023-05-23T07:13:34;27.47;;;15.97;;
37895;SDS011;23733;53.254;10.430;2023-05-23T07:16:00;24.63;;;14.07;;
37895;SDS011;23733;53.254;10.430;2023-05-23T07:18:26;24.70;;;14.43;;
37895;SDS011;23733;53.254;10.430;2023-05-23T07:20:52;27.60;;;15.10;;
37895;SDS011;23733;53.254;10.430;2023-05-23T07:23:18;27.50;;;15.80;;
37895;SDS011;23733;53.254;10.430;2023-05-23T07:25:44;23.60;;;15.03;;
37895;SDS011;23733;53.254;10.430;2023-05-23T07:28:11;36.83;;;17.03;;
37895;SDS011;23733;53.254;10.430;2023-05-23T07:30:37;28.70;;;16.13;;
37895;SDS011;23733;53.254;10.430;2023-05-23T07:33:03;28.50;;;17.00;;
37895;SDS011;23733;53.254;10.430;2023-05-23T07:35:29;27.27;;;16.23;;
37895;SDS011;23733;53.254;10.430;2023-05-23T07:37:55;27.73;;;16.87;;
37895;SDS011;23733;53.254;10.430;2023-05-23T07:40:22;29.40;;;17.80;;
37895;SDS011;23733;53.254;10.430;2023-05-23T07:42:48;28.70;;;17.37;;
37895;SDS011;23733;53.254;10.430;2023-05-23T07:45:14;27.17;;;16.37;;
37895;SDS011;23733;53.254;10.430;2023-05-23T07:47:40;29.20;;;17.57;;
37895;SDS011;23733;53.254;10.430;2023-05-23T07:50:06;29.77;;;16.80;;
37895;SDS011;23733;53.254;10.430;2023-05-23T07:52:33;30.67;;;17.33;;
37895;SDS011;23733;53.254;10.430;2023-05-23T07:55:00;31.93;;;18.40;;
37895;SDS011;23733;53.254;10.430;2023-05-23T07:57:26;30.53;;;17.47;;
37895;SDS011;23733;53.254;10.430;2023-05-23T07:59:52;27.93;;;16.93;;
37895;SDS011;23733;53.254;10.430;2023-05-23T08:02:19;23.87;;;16.00;;
37895;SDS011;23733;53.254;10.430;2023-05-23T08:04:45;24.33;;;15.30;;
37895;SDS011;23733;53.254;10.430;2023-05-23T08:07:12;25.50;;;16.13;;
37895;SDS011;23733;53.254;10.430;2023-05-23T08:09:38;23.10;;;14.77;;
37895;SDS011;23733;53.254;10.430;2023-05-23T08:12:07;24.10;;;15.33;;
37895;SDS011;23733;53.254;10.430;2023-05-23T08:14:34;20.60;;;13.23;;
37895;SDS011;23733;53.254;10.430;2023-05-23T08:17:01;19.13;;;13.23;;
37895;SDS011;23733;53.254;10.430;2023-05-23T08:19:27;18.40;;;12.53;;
37895;SDS011;23733;53.254;10.430;2023-05-23T08:21:53;20.53;;;12.73;;
37895;SDS011;23733;53.254;10.430;2023-05-23T08:24:19;17.70;;;12.73;;
37895;SDS011;23733;53.254;10.430;2023-05-23T08:26:45;14.20;;;10.23;;
37895;SDS011;23733;53.254;10.430;2023-05-23T08:29:12;13.70;;;9.93;;
37895;SDS011;23733;53.254;10.430;2023-05-23T08:31:39;15.70;;;10.30;;
37895;SDS011;23733;53.254;10.430;2023-05-23T08:34:05;14.70;;;11.23;;
37895;SDS011;23733;53.254;10.430;2023-05-23T08:36:31;17.00;;;12.03;;
37895;SDS011;23733;53.254;10.430;2023-05-23T08:39:00;15.17;;;12.13;;
37895;SDS011;23733;53.254;10.430;2023-05-23T08:41:28;16.20;;;11.70;;
37895;SDS011;23733;53.254;10.430;2023-05-23T08:43:55;14.63;;;10.83;;
37895;SDS011;23733;53.254;10.430;2023-05-23T08:46:21;16.67;;;10.00;;
37895;SDS011;23733;53.254;10.430;2023-05-23T08:48:51;12.43;;;9.60;;
37895;SDS011;23733;53.254;10.430;2023-05-23T08:51:23;13.27;;;9.07;;
37895;SDS011;23733;53.254;10.430;2023-05-23T08:53:51;12.60;;;8.77;;
37895;SDS011;23733;53.254;10.430;2023-05-23T08:56:18;15.87;;;9.20;;
37895;SDS011;23733;53.254;10.430;2023-05-23T08:58:44;10.77;;;9.07;;
37895;SDS011;23733;53.254;10.430;2023-05-23T09:01:12;12.07;;;8.80;;
37895;SDS011;23733;53.254;10.430;2023-05-23T09:03:39;9.63;;;8.20;;
37895;SDS011;23733;53.254;10.430;2023-05-23T09:06:07;11.70;;;8.87;;
37895;SDS011;23733;53.254;10.430;2023-05-23T09:08:34;17.50;;;8.00;;
37895;SDS011;23733;53.254;10.430;2023-05-23T09:11:00;12.40;;;7.23;;
37895;SDS011;23733;53.254;10.430;2023-05-23T09:13:28;11.93;;;7.93;;
37895;SDS011;23733;53.254;10.430;2023-05-23T09:18:40;8.97;;;6.50;;
37895;SDS011;23733;53.254;10.430;2023-05-23T09:21:07;8.73;;;6.30;;
37895;SDS011;23733;53.254;10.430;2023-05-23T09:23:34;7.87;;;5.87;;
37895;SDS011;23733;53.254;10.430;2023-05-23T09:26:05;7.17;;;6.00;;
37895;SDS011;23733;53.254;10.430;2023-05-23T09:28:32;8.30;;;5.40;;
37895;SDS011;23733;53.254;10.430;2023-05-23T09:31:00;10.00;;;5.97;;
37895;SDS011;23733;53.254;10.430;2023-05-23T09:33:38;6.33;;;4.80;;
37895;SDS011;23733;53.254;10.430;2023-05-23T09:36:07;6.33;;;4.87;;
37895;SDS011;23733;53.254;10.430;2023-05-23T09:38:37;6.70;;;5.40;;
37895;SDS011;23733;53.254;10.430;2023-05-23T09:41:04;7.20;;;4.83;;
37895;SDS011;23733;53.254;10.430;2023-05-23T09:43:30;6.67;;;4.83;;
37895;SDS011;23733;53.254;10.430;2023-05-23T09:46:00;7.37;;;4.53;;
37895;SDS011;23733;53.254;10.430;2023-05-23T09:48:32;6.47;;;4.70;;
37895;SDS011;23733;53.254;10.430;2023-05-23T09:50:58;6.10;;;4.83;;
37895;SDS011;23733;53.254;10.430;2023-05-23T09:53:27;7.10;;;4.40;;
37895;SDS011;23733;53.254;10.430;2023-05-23T09:55:54;6.80;;;4.53;;
37895;SDS011;23733;53.254;10.430;2023-05-23T09:58:23;6.60;;;4.27;;
37895;SDS011;23733;53.254;10.430;2023-05-23T10:00:51;6.90;;;5.17;;
37895;SDS011;23733;53.254;10.430;2023-05-23T10:03:24;8.90;;;4.30;;
37895;SDS011;23733;53.254;10.430;2023-05-23T10:05:56;4.83;;;4.00;;
37895;SDS011;23733;53.254;10.430;2023-05-23T10:08:28;5.40;;;4.27;;
37895;SDS011;23733;53.254;10.430;2023-05-23T10:13:42;11.90;;;6.40;;
37895;SDS011;23733;53.254;10.430;2023-05-23T10:16:20;10.27;;;7.00;;
37895;SDS011;23733;53.254;10.430;2023-05-23T10:18:55;10.20;;;7.07;;
37895;SDS011;23733;53.254;10.430;2023-05-23T10:21:24;15.53;;;8.60;;
37895;SDS011;23733;53.254;10.430;2023-05-23T10:24:01;10.80;;;7.43;;
37895;SDS011;23733;53.254;10.430;2023-05-23T10:26:29;12.13;;;8.00;;
37895;SDS011;23733;53.254;10.430;2023-05-23T10:28:56;13.97;;;7.80;;
37895;SDS011;23733;53.254;10.430;2023-05-23T10:31:22;10.70;;;7.57;;
37895;SDS011;23733;53.254;10.430;2023-05-23T10:33:55;10.90;;;7.27;;
37895;SDS011;23733;53.254;10.430;2023-05-23T10:36:33;12.53;;;8.10;;
37895;SDS011;23733;53.254;10.430;2023-05-23T10:39:08;8.97;;;6.97;;
37895;SDS011;23733;53.254;10.430;2023-05-23T10:41:38;9.70;;;7.77;;
37895;SDS011;23733;53.254;10.430;2023-05-23T10:44:09;12.93;;;7.77;;
37895;SDS011;23733;53.254;10.430;2023-05-23T10:46:52;11.80;;;8.07;;
37895;SDS011;23733;53.254;10.430;2023-05-23T10:49:19;11.00;;;7.20;;
37895;SDS011;23733;53.254;10.430;2023-05-23T10:51:47;13.03;;;7.17;;
37895;SDS011;23733;53.254;10.430;2023-05-23T10:54:16;10.27;;;6.73;;
37895;SDS011;23733;53.254;10.430;2023-05-23T10:56:43;9.87;;;6.37;;
37895;SDS011;23733;53.254;10.430;2023-05-23T10:59:11;10.40;;;6.03;;
37895;SDS011;23733;53.254;10.430;2023-05-23T11:01:46;8.53;;;5.53;;
37895;SDS011;23733;53.254;10.430;2023-05-23T11:04:14;10.23;;;4.57;;
37895;SDS011;23733;53.254;10.430;2023-05-23T11:06:43;7.10;;;4.60;;
37895;SDS011;23733;53.254;10.430;2023-05-23T11:09:10;7.77;;;5.00;;
37895;SDS011;23733;53.254;10.430;2023-05-23T11:14:15;11.37;;;6.70;;
37895;SDS011;23733;53.254;10.430;2023-05-23T11:16:41;9.40;;;6.80;;
37895;SDS011;23733;53.254;10.430;2023-05-23T11:21:43;9.33;;;5.80;;
37895;SDS011;23733;53.254;10.430;2023-05-23T11:24:10;10.43;;;6.83;;
37895;SDS011;23733;53.254;10.430;2023-05-23T11:26:36;8.93;;;4.97;;
37895;SDS011;23733;53.254;10.430;2023-05-23T11:29:03;9.83;;;5.17;;
37895;SDS011;23733;53.254;10.430;2023-05-23T11:31:36;9.03;;;4.53;;
37895;SDS011;23733;53.254;10.430;2023-05-23T11:34:05;16.37;;;5.80;;
37895;SDS011;23733;53.254;10.430;2023-05-23T11:36:31;8.47;;;4.43;;
37895;SDS011;23733;53.254;10.430;2023-05-23T11:38:59;9.80;;;5.30;;
37895;SDS011;23733;53.254;10.430;2023-05-23T11:41:29;11.27;;;5.37;;
37895;SDS011;23733;53.254;10.430;2023-05-23T11:43:55;11.07;;;4.87;;
37895;SDS011;23733;53.254;10.430;2023-05-23T11:46:22;10.30;;;5.70;;
37895;SDS011;23733;53.254;10.430;2023-05-23T11:48:49;11.87;;;6.13;;
37895;SDS011;23733;53.254;10.430;2023-05-23T11:51:15;14.23;;;5.60;;
37895;SDS011;23733;53.254;10.430;2023-05-23T11:53:42;13.37;;;5.80;;
37895;SDS011;23733;53.254;10.430;2023-05-23T11:56:08;11.97;;;5.80;;
37895;SDS011;23733;53.254;10.430;2023-05-23T11:58:35;12.07;;;5.47;;
37895;SDS011;23733;53.254;10.430;2023-05-23T12:01:03;13.13;;;5.30;;
37895;SDS011;23733;53.254;10.430;2023-05-23T12:03:30;9.13;;;5.40;;
37895;SDS011;23733;53.254;10.430;2023-05-23T12:05:56;11.43;;;5.47;;
37895;SDS011;23733;53.254;10.430;2023-05-23T12:08:23;14.57;;;5.17;;
37895;SDS011;23733;53.254;10.430;2023-05-23T12:10:56;12.00;;;5.33;;
37895;SDS011;23733;53.254;10.430;2023-05-23T12:13:23;15.03;;;5.10;;
37895;SDS011;23733;53.254;10.430;2023-05-23T12:15:56;11.10;;;4.90;;
37895;SDS011;23733;53.254;10.430;2023-05-23T12:18:26;13.67;;;4.73;;
37895;SDS011;23733;53.254;10.430;2023-05-23T12:20:52;14.30;;;4.87;;
37895;SDS011;23733;53.254;10.430;2023-05-23T12:23:22;10.30;;;5.03;;
37895;SDS011;23733;53.254;10.430;2023-05-23T12:25:52;11.97;;;4.90;;
37895;SDS011;23733;53.254;10.430;2023-05-23T12:28:19;12.70;;;4.67;;
37895;SDS011;23733;53.254;10.430;2023-05-23T12:30:46;11.13;;;5.23;;
37895;SDS011;23733;53.254;10.430;2023-05-23T12:33:13;13.57;;;4.70;;
37895;SDS011;23733;53.254;10.430;2023-05-23T12:35:43;10.73;;;4.37;;
37895;SDS011;23733;53.254;10.430;2023-05-23T12:38:13;12.33;;;3.97;;
37895;SDS011;23733;53.254;10.430;2023-05-23T12:40:40;13.80;;;4.17;;
37895;SDS011;23733;53.254;10.430;2023-05-23T12:43:07;11.23;;;4.27;;
37895;SDS011;23733;53.254;10.430;2023-05-23T12:45:34;10.57;;;3.50;;
37895;SDS011;23733;53.254;10.430;2023-05-23T12:48:01;11.43;;;3.40;;
37895;SDS011;23733;53.254;10.430;2023-05-23T12:50:29;7.27;;;3.40;;
37895;SDS011;23733;53.254;10.430;2023-05-23T12:52:55;13.30;;;3.97;;
37895;SDS011;23733;53.254;10.430;2023-05-23T12:55:21;10.47;;;3.67;;
37895;SDS011;23733;53.254;10.430;2023-05-23T12:57:47;9.00;;;3.63;;
37895;SDS011;23733;53.254;10.430;2023-05-23T13:00:14;10.27;;;3.77;;
37895;SDS011;23733;53.254;10.430;2023-05-23T13:02:40;15.27;;;4.43;;
37895;SDS011;23733;53.254;10.430;2023-05-23T13:05:07;14.20;;;4.13;;
37895;SDS011;23733;53.254;10.430;2023-05-23T13:07:33;14.30;;;4.37;;
37895;SDS011;23733;53.254;10.430;2023-05-23T13:10:00;12.13;;;3.87;;
37895;SDS011;23733;53.254;10.430;2023-05-23T13:12:26;12.00;;;3.90;;
37895;SDS011;23733;53.254;10.430;2023-05-23T13:14:53;11.40;;;3.83;;
37895;SDS011;23733;53.254;10.430;2023-05-23T13:17:19;12.67;;;4.33;;
37895;SDS011;23733;53.254;10.430;2023-05-23T13:19:45;10.90;;;4.57;;
37895;SDS011;23733;53.254;10.430;2023-05-23T13:22:11;13.77;;;4.27;;
37895;SDS011;23733;53.254;10.430;2023-05-23T13:24:37;13.73;;;4.30;;
37895;SDS011;23733;53.254;10.430;2023-05-23T13:27:05;12.27;;;4.00;;
37895;SDS011;23733;53.254;10.430;2023-05-23T13:29:32;12.83;;;4.40;;
37895;SDS011;23733;53.254;10.430;2023-05-23T13:31:58;17.53;;;4.67;;
37895;SDS011;23733;53.254;10.430;2023-05-23T13:34:25;13.43;;;3.87;;
37895;SDS011;23733;53.254;10.430;2023-05-23T13:36:53;10.07;;;3.47;;
37895;SDS011;23733;53.254;10.430;2023-05-23T13:39:19;12.33;;;3.70;;
37895;SDS011;23733;53.254;10.430;2023-05-23T13:41:47;11.13;;;3.60;;
37895;SDS011;23733;53.254;10.430;2023-05-23T13:44:14;10.73;;;2.93;;
37895;SDS011;23733;53.254;10.430;2023-05-23T13:46:41;11.27;;;3.80;;
37895;SDS011;23733;53.254;10.430;2023-05-23T13:49:07;12.87;;;3.60;;
37895;SDS011;23733;53.254;10.430;2023-05-23T13:51:33;10.23;;;3.50;;
37895;SDS011;23733;53.254;10.430;2023-05-23T13:54:02;9.70;;;3.63;;
37895;SDS011;23733;53.254;10.430;2023-05-23T13:56:29;12.43;;;3.70;;
37895;SDS011;23733;53.254;10.430;2023-05-23T13:58:55;8.07;;;3.40;;
37895;SDS011;23733;53.254;10.430;2023-05-23T14:01:21;12.67;;;3.10;;
37895;SDS011;23733;53.254;10.430;2023-05-23T14:03:47;11.67;;;3.73;;
37895;SDS011;23733;53.254;10.430;2023-05-23T14:06:13;11.83;;;3.23;;
37895;SDS011;23733;53.254;10.430;2023-05-23T14:08:39;14.17;;;3.50;;
37895;SDS011;23733;53.254;10.430;2023-05-23T14:11:05;10.93;;;3.10;;
37895;SDS011;23733;53.254;10.430;2023-05-23T14:13:31;15.20;;;3.80;;
37895;SDS011;23733;53.254;10.430;2023-05-23T14:15:58;10.70;;;3.63;;
37895;SDS011;23733;53.254;10.430;2023-05-23T14:18:24;9.70;;;3.57;;
37895;SDS011;23733;53.254;10.430;2023-05-23T14:20:50;15.27;;;3.07;;
37895;SDS011;23733;53.254;10.430;2023-05-23T14:23:16;10.57;;;3.33;;
37895;SDS011;23733;53.254;10.430;2023-05-23T14:25:42;12.20;;;3.80;;
37895;SDS011;23733;53.254;10.430;2023-05-23T14:28:09;13.03;;;3.70;;
37895;SDS011;23733;53.254;10.430;2023-05-23T14:30:35;13.20;;;3.80;;
37895;SDS011;23733;53.254;10.430;2023-05-23T14:33:01;12.17;;;3.63;;
37895;SDS011;23733;53.254;10.430;2023-05-23T14:35:28;10.43;;;2.90;;